Jonathan, Mississippi
Current Conditions -  °F | °C
As of 7:56 AM on Thursday 27 Nov 2014 (Local Time) from KMOB Reporting Station
Clear Clear  
Wind Chill: 42°   Ceiling: Unl
Heat Index: 47°   Visibility: 10mi
Dew Point: 35°   Wind: 10mph
Humidity: 63%   Direction: 320°NW
Pressure: 30.39"   Gusts: NA
Location:  31.1153°N, 88.5168°W
Report Text: KMOB 271356Z 32009KT 10SM CLR 08/02 A3039 RMK AO2 SLP289 T00830017
Loading
Personal Weather Stations






























Interactive Weather Map New forecast layout! Learn more

10-Day Weather Forecast

Advertisements
Track Severe Weather on mobile